Barwick, Canada
Current Conditions -  °F | °C
As of 1:55 AM on Thursday 23 Oct 2014 (Local Time) from KINL Reporting Station
Light Rain Light Rain  
Wind Chill: 46°   Ceiling: 6500
Heat Index: 49°   Visibility: 10mi
Dew Point: 46°   Wind: 7mph
Humidity: 90%   Direction: NA
Pressure: 29.89"   Gusts: NA
Location:  48.65°N, 93.98°W
Report Text: KINL 230655Z AUTO VRB06KT 10SM -RA SCT024 BKN065 OVC080 09/08 A2989 RMK AO2 SLP128 P0001 T00940078
Loading
Personal Weather Stations






























Interactive Weather Map
Tropical Storm Tracking
New forecast layout! Learn more

10-Day Weather Forecast

Advertisements
Track Severe Weather on mobile